createdAt,value
2023-03-04T00:02:01.102Z,74.93
2023-03-04T00:05:04.144Z,69.30
2023-03-04T00:08:07.075Z,71.33
2023-03-04T00:11:09.855Z,65.40
2023-03-04T00:14:12.703Z,67.75
2023-03-04T00:17:15.516Z,74.28
2023-03-04T00:20:18.445Z,100.80
2023-03-04T00:23:21.255Z,80.97
2023-03-04T00:26:24.222Z,90.00
2023-03-04T00:29:27.480Z,110.53
2023-03-04T00:32:30.497Z,101.53
2023-03-04T00:35:33.302Z,140.63
2023-03-04T00:38:36.211Z,105.03
2023-03-04T00:41:39.326Z,79.73
2023-03-04T00:44:42.086Z,67.10
2023-03-04T00:47:45.262Z,64.07
2023-03-04T00:50:49.279Z,64.90
2023-03-04T00:53:52.529Z,104.63
2023-03-04T00:56:55.349Z,105.20
2023-03-04T00:59:58.179Z,94.38
2023-03-04T01:03:01.074Z,72.20
2023-03-04T01:06:04.326Z,67.32
2023-03-04T01:09:08.579Z,60.50
2023-03-04T01:12:12.565Z,56.47
2023-03-04T01:15:15.514Z,79.53
2023-03-04T01:18:18.429Z,76.43
2023-03-04T01:21:21.471Z,76.65
2023-03-04T01:24:24.430Z,58.93
2023-03-04T01:27:27.341Z,59.70
2023-03-04T01:30:30.634Z,56.90
2023-03-04T01:33:33.503Z,55.58
2023-03-04T01:36:36.432Z,56.53
2023-03-04T01:39:39.343Z,59.37
2023-03-04T01:42:42.134Z,57.13
2023-03-04T01:45:44.953Z,60.80
2023-03-04T01:48:48.140Z,64.13
2023-03-04T01:51:54.344Z,59.08
2023-03-04T01:54:57.810Z,52.60
2023-03-04T01:58:01.035Z,60.43
2023-03-04T02:01:03.906Z,59.83
2023-03-04T02:04:08.410Z,55.95
2023-03-04T02:07:11.515Z,60.83
2023-03-04T02:10:14.394Z,55.93
2023-03-04T02:13:18.034Z,58.93
2023-03-04T02:16:21.031Z,59.40
2023-03-04T02:19:23.720Z,55.22
2023-03-04T02:22:26.684Z,58.17
2023-03-04T02:25:43.868Z,69.17
2023-03-04T02:28:49.789Z,63.07
2023-03-04T02:31:55.027Z,68.95
2023-03-04T02:34:58.094Z,73.47
2023-03-04T02:38:01.009Z,61.40
2023-03-04T02:41:06.856Z,89.47
2023-03-04T02:44:17.344Z,77.60
2023-03-04T02:47:20.385Z,79.47
2023-03-04T02:50:26.335Z,82.10
2023-03-04T02:53:29.227Z,79.28
2023-03-04T02:56:32.049Z,70.87
2023-03-04T02:59:36.129Z,67.53
2023-03-04T03:02:39.644Z,66.68
2023-03-04T03:05:42.809Z,69.47
2023-03-04T03:08:45.943Z,61.67
2023-03-04T03:11:49.724Z,69.90
2023-03-04T03:14:52.662Z,64.53
2023-03-04T03:17:57.940Z,62.78
2023-03-04T03:21:00.817Z,57.85
2023-03-04T03:24:05.196Z,65.53
2023-03-04T03:27:07.881Z,67.77
2023-03-04T03:30:16.796Z,119.90
2023-03-04T03:33:20.021Z,81.78
2023-03-04T03:36:22.718Z,66.93
2023-03-04T03:39:25.743Z,62.92
2023-03-04T03:42:28.500Z,60.33
2023-03-04T03:45:31.400Z,55.93
2023-03-04T03:48:34.152Z,58.85
2023-03-04T03:51:37.270Z,55.92
2023-03-04T03:54:40.132Z,59.47
2023-03-04T03:57:42.980Z,56.60
2023-03-04T04:00:45.701Z,60.33
2023-03-04T04:03:48.631Z,57.65
2023-03-04T04:06:51.420Z,64.80
2023-03-04T04:09:54.239Z,59.72
2023-03-04T04:12:57.040Z,57.37
2023-03-04T04:15:59.773Z,52.43
2023-03-04T04:19:02.497Z,54.15
2023-03-04T04:22:05.173Z,63.15
2023-03-04T04:25:10.865Z,66.00
2023-03-04T04:28:13.764Z,60.93
2023-03-04T04:31:16.546Z,61.73
2023-03-04T04:34:19.323Z,53.08
2023-03-04T04:37:22.163Z,55.85
2023-03-04T04:40:24.921Z,57.28
2023-03-04T04:43:28.267Z,63.77
2023-03-04T04:46:31.078Z,63.10
2023-03-04T04:49:33.872Z,59.28
2023-03-04T04:52:36.652Z,60.70
2023-03-04T04:55:39.510Z,56.30
2023-03-04T04:58:43.353Z,51.83
2023-03-04T05:01:46.300Z,57.43
2023-03-04T05:04:49.119Z,53.10
2023-03-04T05:07:51.821Z,70.28
2023-03-04T05:10:54.695Z,64.38
2023-03-04T05:13:57.587Z,60.47
2023-03-04T05:17:05.452Z,50.97
2023-03-04T05:20:09.023Z,48.42
2023-03-04T05:23:11.747Z,58.22
2023-03-04T05:26:17.192Z,63.40
2023-03-04T05:29:20.273Z,55.30
2023-03-04T05:32:23.172Z,52.03
2023-03-04T05:35:28.553Z,61.17
2023-03-04T05:38:32.012Z,61.45
2023-03-04T05:41:35.310Z,63.78
2023-03-04T05:44:38.077Z,57.07
2023-03-04T05:47:40.830Z,64.70
2023-03-04T05:50:43.536Z,59.08
2023-03-04T05:53:46.357Z,58.65
2023-03-04T05:56:49.127Z,69.30
2023-03-04T05:59:51.915Z,101.00
2023-03-04T06:02:54.849Z,102.50
2023-03-04T06:05:58.968Z,71.40
2023-03-04T06:09:01.842Z,61.20
2023-03-04T06:12:05.057Z,61.58
2023-03-04T06:15:10.257Z,65.23
2023-03-04T06:18:13.123Z,102.60
2023-03-04T06:21:16.209Z,79.03
2023-03-04T06:24:19.098Z,69.22
2023-03-04T06:27:21.921Z,78.47
2023-03-04T06:30:25.013Z,92.00
2023-03-04T06:33:28.083Z,64.87
2023-03-04T06:36:30.918Z,72.55
2023-03-04T06:39:33.712Z,54.30
2023-03-04T06:42:37.139Z,55.90
2023-03-04T06:45:39.921Z,53.20
2023-03-04T06:48:42.836Z,51.30
2023-03-04T06:51:45.666Z,65.72
2023-03-04T06:54:48.694Z,59.15
2023-03-04T06:57:51.552Z,55.53
2023-03-04T07:00:54.342Z,49.63
2023-03-04T07:03:57.855Z,46.30
2023-03-04T07:07:00.857Z,47.63
2023-03-04T07:10:05.447Z,36.88
2023-03-04T07:13:08.388Z,34.38
2023-03-04T07:16:15.027Z,30.25
2023-03-04T07:19:17.999Z,26.57
2023-03-04T07:22:20.924Z,26.15
2023-03-04T07:25:23.748Z,25.52
2023-03-04T07:28:26.876Z,24.95
2023-03-04T07:31:31.950Z,26.50
2023-03-04T07:34:34.803Z,23.23
2023-03-04T07:37:37.669Z,22.13
2023-03-04T07:40:40.518Z,24.15
2023-03-04T07:43:44.114Z,23.30
2023-03-04T07:46:46.912Z,22.95
2023-03-04T07:49:49.824Z,22.93
2023-03-04T07:52:52.790Z,25.23
2023-03-04T07:55:55.543Z,27.50
2023-03-04T07:58:59.102Z,23.42
2023-03-04T08:02:02.384Z,23.40
2023-03-04T08:05:05.711Z,22.63
2023-03-04T08:08:08.557Z,24.25
2023-03-04T08:11:14.954Z,23.50
2023-03-04T08:14:18.035Z,25.30
2023-03-04T08:17:21.062Z,28.17
2023-03-04T08:20:23.896Z,23.73
2023-03-04T08:23:27.396Z,22.95
2023-03-04T08:26:34.337Z,25.55
2023-03-04T08:29:37.188Z,23.90
2023-03-04T08:32:40.300Z,23.52
2023-03-04T08:35:43.179Z,24.93
2023-03-04T08:38:46.086Z,26.17
2023-03-04T08:41:49.625Z,26.58
2023-03-04T08:44:52.447Z,26.38
2023-03-04T08:47:55.576Z,17.92
2023-03-04T08:50:58.795Z,17.53
2023-03-04T08:54:05.881Z,16.80
2023-03-04T08:57:08.810Z,16.80
2023-03-04T09:00:12.582Z,15.93
2023-03-04T09:03:17.272Z,16.60
2023-03-04T09:06:20.319Z,14.70
2023-03-04T09:09:23.341Z,16.60
2023-03-04T09:12:26.778Z,16.73
2023-03-04T09:15:29.830Z,17.77
2023-03-04T09:18:32.577Z,15.52
2023-03-04T09:21:35.386Z,14.90
2023-03-04T09:24:38.355Z,17.00
2023-03-04T09:27:42.260Z,16.83
2023-03-04T09:30:45.403Z,20.08
2023-03-04T09:33:49.221Z,17.75
2023-03-04T09:36:52.146Z,16.73
2023-03-04T09:39:54.960Z,15.15
2023-03-04T09:43:03.697Z,22.80
2023-03-04T09:46:16.263Z,18.20
2023-03-04T09:49:22.381Z,17.52
2023-03-04T09:52:42.790Z,22.27
2023-03-04T09:55:51.454Z,18.75
2023-03-04T09:59:10.089Z,20.65
2023-03-04T10:02:30.467Z,25.67
2023-03-04T10:05:38.189Z,28.65
2023-03-04T10:08:56.950Z,26.40
2023-03-04T10:12:06.154Z,25.65
2023-03-04T10:15:31.856Z,28.63
2023-03-04T10:18:39.713Z,30.95
2023-03-04T10:21:45.817Z,31.45
2023-03-04T10:24:49.393Z,29.37
2023-03-04T10:27:58.418Z,28.42
2023-03-04T10:31:10.157Z,31.13
2023-03-04T10:34:14.964Z,31.80
2023-03-04T10:37:17.687Z,30.30
2023-03-04T10:40:24.272Z,31.50
2023-03-04T10:43:27.549Z,30.90
2023-03-04T10:46:32.385Z,36.08
2023-03-04T10:49:51.224Z,30.70
2023-03-04T10:52:56.030Z,31.67
2023-03-04T10:55:59.104Z,33.57
2023-03-04T10:59:29.531Z,32.78
2023-03-04T11:02:35.324Z,30.83
2023-03-04T11:05:38.116Z,33.67
2023-03-04T11:08:42.168Z,32.67
2023-03-04T11:11:46.170Z,31.03
2023-03-04T11:14:51.367Z,31.77
2023-03-04T11:17:59.761Z,34.80
2023-03-04T11:21:02.776Z,33.60
2023-03-04T11:24:28.346Z,33.35
2023-03-04T11:27:35.118Z,31.47
2023-03-04T11:30:58.504Z,33.92
2023-03-04T11:34:20.187Z,33.10
2023-03-04T11:37:25.897Z,34.55
2023-03-04T11:40:49.036Z,33.58
2023-03-04T11:43:51.941Z,35.03
2023-03-04T11:47:15.559Z,33.80
2023-03-04T11:50:36.542Z,36.10
2023-03-04T11:53:55.233Z,33.70
2023-03-04T11:57:04.882Z,35.53
2023-03-04T12:00:24.516Z,36.27
2023-03-04T12:03:57.970Z,32.35
2023-03-04T12:07:22.868Z,30.40
2023-03-04T12:11:08.520Z,32.95
2023-03-04T12:14:37.198Z,30.35
2023-03-04T12:18:06.152Z,35.37
2023-03-04T12:21:26.938Z,37.47
2023-03-04T12:24:51.585Z,31.13
2023-03-04T12:28:02.730Z,32.83
2023-03-04T12:31:29.155Z,36.20
2023-03-04T12:34:45.648Z,33.07
2023-03-04T12:38:03.476Z,33.88
2023-03-04T12:41:39.610Z,33.53
2023-03-04T12:45:08.652Z,32.70
2023-03-04T12:48:11.468Z,36.00
2023-03-04T12:51:20.223Z,31.07
2023-03-04T12:54:40.902Z,31.67
2023-03-04T12:57:43.968Z,35.67
2023-03-04T13:01:16.157Z,36.00
2023-03-04T13:04:32.575Z,37.13
2023-03-04T13:07:48.804Z,31.53
2023-03-04T13:10:52.373Z,34.75
2023-03-04T13:14:19.984Z,36.50
2023-03-04T13:17:51.689Z,33.08
2023-03-04T13:21:13.742Z,33.05
2023-03-04T13:24:47.185Z,35.63
2023-03-04T13:27:51.896Z,35.65
2023-03-04T13:30:56.047Z,34.75
2023-03-04T13:34:01.457Z,30.27
2023-03-04T13:37:29.996Z,36.35
2023-03-04T13:40:38.682Z,34.73
2023-03-04T13:43:41.412Z,34.95
2023-03-04T13:46:44.401Z,32.38
2023-03-04T13:49:48.025Z,33.15
2023-03-04T13:52:51.336Z,29.45
2023-03-04T13:56:23.922Z,28.97
2023-03-04T13:59:45.464Z,33.20
2023-03-04T14:02:48.229Z,30.85
2023-03-04T14:06:23.611Z,29.20
2023-03-04T14:09:28.136Z,30.63
2023-03-04T14:12:34.051Z,31.80
2023-03-04T14:15:38.103Z,32.70
2023-03-04T14:18:40.946Z,30.13
2023-03-04T14:21:47.335Z,29.63
2023-03-04T14:25:19.280Z,30.77
2023-03-04T14:28:22.093Z,29.57
2023-03-04T14:31:30.402Z,31.85
2023-03-04T14:34:39.223Z,30.95
2023-03-04T14:38:06.937Z,33.78
2023-03-04T14:41:35.396Z,33.95
2023-03-04T14:44:45.503Z,31.50
2023-03-04T14:47:52.866Z,28.73
2023-03-04T14:50:57.394Z,34.05
2023-03-04T14:54:00.294Z,31.30
2023-03-04T14:57:26.832Z,32.88
2023-03-04T15:00:35.561Z,31.53
2023-03-04T15:03:40.178Z,37.00
2023-03-04T15:06:55.694Z,32.08
2023-03-04T15:09:59.303Z,34.63
2023-03-04T15:13:04.661Z,33.50
2023-03-04T15:16:08.803Z,35.27
2023-03-04T15:19:27.460Z,33.28
2023-03-04T15:22:30.654Z,35.70
2023-03-04T15:25:33.693Z,38.60
2023-03-04T15:28:38.715Z,38.20
2023-03-04T15:31:43.916Z,39.13
2023-03-04T15:34:46.845Z,36.60
2023-03-04T15:37:52.385Z,47.50
2023-03-04T15:40:58.551Z,43.10
2023-03-04T15:44:01.633Z,42.35
2023-03-04T15:47:04.850Z,40.87
2023-03-04T15:50:10.307Z,40.60
2023-03-04T15:53:34.088Z,39.72
2023-03-04T15:56:36.896Z,40.40
2023-03-04T15:59:40.224Z,43.75
2023-03-04T16:02:43.766Z,50.23
2023-03-04T16:05:49.508Z,48.03
2023-03-04T16:08:52.786Z,45.55
2023-03-04T16:11:57.350Z,46.78
2023-03-04T16:15:00.506Z,49.20
2023-03-04T16:18:04.435Z,43.03
2023-03-04T16:21:11.967Z,46.38
2023-03-04T16:24:19.152Z,47.03
2023-03-04T16:27:22.537Z,50.00
2023-03-04T16:30:27.152Z,47.67
2023-03-04T16:33:30.180Z,49.17
2023-03-04T16:36:33.182Z,45.75
2023-03-04T16:39:36.692Z,49.47
2023-03-04T16:42:40.409Z,56.85
2023-03-04T16:45:44.368Z,54.88
2023-03-04T16:48:50.191Z,49.37
2023-03-04T16:51:53.784Z,56.08
2023-03-04T16:54:57.934Z,52.17
2023-03-04T16:58:01.046Z,52.53
2023-03-04T17:01:04.997Z,54.47
2023-03-04T17:04:07.970Z,54.70
2023-03-04T17:07:10.983Z,48.13
2023-03-04T17:10:15.216Z,57.38
2023-03-04T17:13:18.194Z,59.22
2023-03-04T17:16:21.017Z,56.10
2023-03-04T17:19:24.139Z,56.07
2023-03-04T17:22:27.194Z,51.45
2023-03-04T17:25:29.999Z,56.55
2023-03-04T17:28:33.646Z,70.22
2023-03-04T17:31:37.128Z,71.63
2023-03-04T17:34:39.951Z,70.80
2023-03-04T17:37:42.974Z,58.33
2023-03-04T17:40:46.186Z,60.40
2023-03-04T17:43:51.667Z,64.57
2023-03-04T17:46:54.507Z,64.00
2023-03-04T17:49:57.605Z,68.40
2023-03-04T17:53:00.720Z,66.93
2023-03-04T17:56:05.785Z,72.45
2023-03-04T17:59:12.836Z,78.18
2023-03-04T18:02:16.321Z,75.10
2023-03-04T18:05:19.363Z,78.07
2023-03-04T18:08:24.215Z,76.63
2023-03-04T18:11:28.441Z,74.45
2023-03-04T18:14:31.702Z,70.13
2023-03-04T18:17:34.512Z,60.83
2023-03-04T18:20:37.471Z,60.93
2023-03-04T18:23:40.202Z,60.72
2023-03-04T18:26:43.265Z,62.42
2023-03-04T18:29:46.330Z,59.85
2023-03-04T18:32:52.101Z,64.10
2023-03-04T18:36:04.536Z,63.10
2023-03-04T18:39:07.634Z,58.15
2023-03-04T18:42:10.364Z,55.50
2023-03-04T18:45:14.508Z,59.80
2023-03-04T18:48:17.649Z,52.93
2023-03-04T18:51:21.011Z,52.20
2023-03-04T18:54:25.550Z,51.60
2023-03-04T18:57:28.737Z,52.53
2023-03-04T19:00:31.904Z,55.90
2023-03-04T19:03:37.855Z,53.87
2023-03-04T19:06:40.725Z,56.80
2023-03-04T19:09:43.708Z,51.30
2023-03-04T19:12:47.332Z,52.38
2023-03-04T19:15:51.796Z,61.35
2023-03-04T19:18:54.924Z,58.50
2023-03-04T19:21:58.529Z,63.97
2023-03-04T19:25:01.618Z,59.60
2023-03-04T19:28:05.286Z,58.30
2023-03-04T19:31:10.101Z,57.22
2023-03-04T19:34:13.226Z,59.95
2023-03-04T19:37:16.537Z,54.03
2023-03-04T19:40:21.163Z,59.05
2023-03-04T19:43:24.354Z,61.45
2023-03-04T19:46:28.015Z,60.72
2023-03-04T19:49:31.899Z,58.03
2023-03-04T19:52:35.736Z,59.70
2023-03-04T19:55:39.027Z,58.28
2023-03-04T19:58:42.116Z,54.75
2023-03-04T20:01:45.849Z,64.75
2023-03-04T20:04:49.351Z,59.60
2023-03-04T20:07:52.904Z,52.43
2023-03-04T20:10:55.983Z,59.25
2023-03-04T20:14:01.282Z,61.70
2023-03-04T20:17:07.118Z,75.90
2023-03-04T20:20:12.678Z,77.90
2023-03-04T20:23:20.504Z,66.63
2023-03-04T20:26:24.206Z,65.32
2023-03-04T20:29:29.023Z,60.15
2023-03-04T20:32:32.273Z,60.95
2023-03-04T20:35:35.507Z,64.10
2023-03-04T20:38:39.223Z,64.97
2023-03-04T20:41:42.378Z,64.47
2023-03-04T20:44:45.482Z,69.22
2023-03-04T20:47:49.033Z,71.00
2023-03-04T20:50:52.076Z,64.93
2023-03-04T20:53:55.622Z,67.67
2023-03-04T20:56:58.967Z,61.38
2023-03-04T21:00:01.931Z,58.65
2023-03-04T21:03:05.125Z,54.72
2023-03-04T21:06:09.888Z,56.93
2023-03-04T21:09:16.052Z,63.50
2023-03-04T21:12:19.196Z,56.97
2023-03-04T21:15:23.052Z,60.72
2023-03-04T21:18:28.023Z,55.08
2023-03-04T21:21:32.081Z,60.93
2023-03-04T21:24:39.536Z,64.07
2023-03-04T21:27:43.756Z,66.85
2023-03-04T21:30:47.944Z,66.68
2023-03-04T21:33:53.279Z,58.70
2023-03-04T21:36:56.339Z,58.30
2023-03-04T21:40:01.434Z,50.13
2023-03-04T21:43:04.313Z,55.85
2023-03-04T21:46:07.237Z,53.92
2023-03-04T21:49:14.214Z,53.13
2023-03-04T21:52:21.633Z,43.40
2023-03-04T21:55:24.384Z,50.63
2023-03-04T21:58:28.101Z,55.30
2023-03-04T22:01:31.028Z,48.30
2023-03-04T22:04:33.818Z,51.47
2023-03-04T22:07:36.515Z,51.53
2023-03-04T22:10:40.658Z,42.87
2023-03-04T22:13:43.479Z,39.05
2023-03-04T22:16:54.629Z,37.70
2023-03-04T22:19:58.370Z,33.47
2023-03-04T22:23:01.273Z,33.63
2023-03-04T22:26:09.416Z,36.63
2023-03-04T22:29:12.386Z,30.95
2023-03-04T22:32:17.264Z,30.67
2023-03-04T22:35:20.064Z,30.33
2023-03-04T22:38:22.985Z,30.33
2023-03-04T22:41:26.023Z,33.13
2023-03-04T22:44:28.941Z,29.90
2023-03-04T22:47:31.666Z,29.80
2023-03-04T22:50:35.224Z,27.65
2023-03-04T22:53:38.135Z,24.43
2023-03-04T22:56:40.949Z,23.87
2023-03-04T22:59:43.702Z,22.58
2023-03-04T23:02:46.821Z,25.98
2023-03-04T23:05:49.832Z,23.20
2023-03-04T23:08:52.942Z,21.60
2023-03-04T23:11:55.799Z,28.10
2023-03-04T23:14:59.367Z,26.83
2023-03-04T23:18:02.137Z,21.23
2023-03-04T23:21:09.989Z,18.42
2023-03-04T23:24:13.894Z,16.57
2023-03-04T23:27:17.025Z,15.30
2023-03-04T23:30:19.920Z,18.02
2023-03-04T23:33:23.119Z,18.38
2023-03-04T23:36:29.608Z,22.45
2023-03-04T23:39:32.483Z,20.63
2023-03-04T23:42:35.459Z,19.13
2023-03-04T23:45:38.369Z,17.58
2023-03-04T23:48:45.651Z,17.88
2023-03-04T23:51:48.340Z,19.85
2023-03-04T23:54:51.170Z,19.30
2023-03-04T23:57:54.005Z,21.13
